Time;durP1;ratioP1;P1;durP2;ratioP2;P2;SDS_P1;SDS_P2;PMS_P1;PMS_P2;Temp;Humidity;BMP_temperature;BMP_pressure;BME280_temperature;BME280_humidity;BME280_pressure;Samples;Min_cycle;Max_cycle;Signal;HPM_P1;HPM_P2
2022/06/15 00:00:00;;;;;;;;;;;;;;;16.69;45.53;98168.91;5095436;28;20342;-57
2022/06/15 00:02:48;;;;;;;;;;;;;;;16.64;45.91;98169.16;5084735;28;19924;-55
2022/06/15 00:05:38;;;;;;;;;;;;;;;16.67;45.53;98159.41;5098245;28;20285;-55
2022/06/15 00:08:27;;;;;;;;;;;;;;;16.54;46.00;98171.56;5089901;28;19920;-55
2022/06/15 00:11:17;;;;;;;;;;;;;;;16.53;46.09;98164.47;5086106;28;19958;-55
2022/06/15 00:14:06;;;;;;;;;;;;;;;16.51;45.85;98170.28;5085474;28;19919;-55
2022/06/15 00:16:54;;;;;;;;;;;;;;;16.50;45.96;98166.75;5099945;28;19930;-54
2022/06/15 00:19:48;;;;;;;;;;;;;;;16.52;46.15;98160.94;5100927;28;20154;-55
2022/06/15 00:22:38;;;;;;;;;;;;;;;16.44;46.08;98159.09;5090145;28;19919;-55
2022/06/15 00:25:26;;;;;;;;;;;;;;;16.45;46.18;98161.50;5098388;28;20064;-55
2022/06/15 00:28:15;;;;;;;;;;;;;;;16.37;46.47;98161.63;5096750;28;19924;-55
2022/06/15 00:31:10;;;;;;;;;;;;;;;16.42;46.42;98164.16;5091179;28;20326;-54
2022/06/15 00:37:10;;;;;;;;;;;;;;;16.33;46.46;98160.72;5082458;28;19975;-54
2022/06/15 00:40:01;;;;;;;;;;;;;;;16.30;46.45;98153.16;5092022;28;20398;-55
2022/06/15 00:42:55;;;;;;;;;;;;;;;16.26;46.82;98155.81;5090734;28;19920;-55
2022/06/15 00:46:09;;;;;;;;;;;;;;;16.29;46.71;98148.81;5097465;28;20014;-55
2022/06/15 00:49:22;;;;;;;;;;;;;;;16.27;46.85;98146.44;5099552;28;19924;-56
2022/06/15 00:52:36;;;;;;;;;;;;;;;16.24;47.02;98153.41;5098399;28;19920;-53
2022/06/15 00:55:29;;;;;;;;;;;;;;;16.14;46.87;98147.56;5098148;28;19946;-55
2022/06/15 00:58:17;;;;;;;;;;;;;;;16.21;46.92;98148.59;5088297;28;19926;-52
2022/06/15 01:01:09;;;;;;;;;;;;;;;16.10;47.18;98141.97;5077590;28;19920;-54
2022/06/15 01:04:23;;;;;;;;;;;;;;;15.89;47.39;98153.03;5089001;28;19924;-54
2022/06/15 01:07:20;;;;;;;;;;;;;;;15.85;47.80;98162.25;5088082;28;20057;-55
2022/06/15 01:10:13;;;;;;;;;;;;;;;15.86;47.72;98156.44;5087966;28;20024;-55
2022/06/15 01:13:07;;;;;;;;;;;;;;;15.92;47.74;98157.00;5090183;28;20428;-54
2022/06/15 01:15:58;;;;;;;;;;;;;;;15.90;47.54;98153.81;5095605;28;19920;-55
2022/06/15 01:18:50;;;;;;;;;;;;;;;16.14;47.16;98151.13;5094132;28;19927;-54
2022/06/15 01:21:40;;;;;;;;;;;;;;;15.84;48.03;98160.66;5087500;28;19919;-55
2022/06/15 01:24:37;;;;;;;;;;;;;;;15.77;48.03;98155.75;5091092;28;19923;-53
2022/06/15 01:27:30;;;;;;;;;;;;;;;15.70;48.49;98156.28;5092347;28;20085;-55
2022/06/15 01:30:21;;;;;;;;;;;;;;;15.54;48.45;98154.50;5086869;28;19946;-54
2022/06/15 01:33:14;;;;;;;;;;;;;;;15.49;48.90;98154.72;5096824;28;19923;-54
2022/06/15 01:36:08;;;;;;;;;;;;;;;15.45;48.96;98155.41;5098033;28;20392;-55
2022/06/15 01:42:15;;;;;;;;;;;;;;;15.39;49.40;98155.94;5097556;28;20003;-55
2022/06/15 01:45:11;;;;;;;;;;;;;;;15.43;49.14;98152.19;5097382;28;19920;-55
2022/06/15 01:48:01;;;;;;;;;;;;;;;15.41;49.16;98145.47;5087814;28;20445;-55
2022/06/15 01:50:51;;;;;;;;;;;;;;;15.40;49.29;98152.06;5093368;28;19919;-56
2022/06/15 01:53:42;;;;;;;;;;;;;;;15.45;49.12;98151.88;5099873;28;19919;-55
2022/06/15 01:56:56;;;;;;;;;;;;;;;15.35;49.34;98147.59;5091750;28;20121;-56
2022/06/15 01:59:46;;;;;;;;;;;;;;;15.26;49.52;98155.09;5098279;28;20450;-56
2022/06/15 02:02:35;;;;;;;;;;;;;;;15.28;49.58;98150.06;5091646;28;19962;-54
2022/06/15 02:05:26;;;;;;;;;;;;;;;15.41;49.22;98149.00;5098152;28;19931;-51
2022/06/15 02:08:16;;;;;;;;;;;;;;;15.15;49.90;98142.97;5077819;28;20298;-55
2022/06/15 02:11:09;;;;;;;;;;;;;;;15.13;50.00;98147.97;5083615;28;20384;-55
2022/06/15 02:17:15;;;;;;;;;;;;;;;15.29;49.85;98146.22;5076448;28;20020;-55
2022/06/15 02:20:07;;;;;;;;;;;;;;;15.11;50.17;98142.81;5079880;28;20015;-50
2022/06/15 02:23:03;;;;;;;;;;;;;;;15.27;49.77;98140.25;5093722;28;19920;-55
2022/06/15 02:25:54;;;;;;;;;;;;;;;15.12;50.27;98138.16;5089998;28;20005;-53
2022/06/15 02:28:43;;;;;;;;;;;;;;;15.00;50.40;98147.09;5089107;28;20130;-55
2022/06/15 02:31:57;;;;;;;;;;;;;;;15.30;49.98;98145.09;5090231;28;20296;-56
2022/06/15 02:34:46;;;;;;;;;;;;;;;15.26;50.09;98138.66;5071214;28;19924;-55
2022/06/15 02:37:34;;;;;;;;;;;;;;;15.19;50.12;98133.75;5089510;28;19935;-55
2022/06/15 02:40:24;;;;;;;;;;;;;;;15.12;50.38;98140.88;5100429;28;19935;-51
2022/06/15 02:43:13;;;;;;;;;;;;;;;14.93;50.94;98136.69;5096512;28;19938;-55
2022/06/15 02:46:08;;;;;;;;;;;;;;;14.81;51.19;98142.13;5064892;28;19925;-56
2022/06/15 02:48:57;;;;;;;;;;;;;;;14.75;51.20;98145.34;5067730;28;19920;-55
2022/06/15 02:55:27;;;;;;;;;;;;;;;14.91;51.13;98140.88;5036444;28;19925;-54
2022/06/15 02:58:16;;;;;;;;;;;;;;;14.89;51.01;98143.16;5055582;28;19996;-54
2022/06/15 03:01:09;;;;;;;;;;;;;;;14.70;51.43;98145.56;5045741;28;20120;-54
2022/06/15 03:03:59;;;;;;;;;;;;;;;14.71;51.43;98138.97;5045733;28;19924;-54
2022/06/15 03:07:11;;;;;;;;;;;;;;;14.60;51.83;98133.91;5044291;28;20688;-56
2022/06/15 03:10:03;;;;;;;;;;;;;;;14.62;51.84;98134.34;5043615;28;19931;-56
2022/06/15 03:12:53;;;;;;;;;;;;;;;14.81;51.53;98147.59;5044251;28;20037;-54
2022/06/15 03:15:41;;;;;;;;;;;;;;;14.64;51.67;98147.69;5048950;28;19920;-53
2022/06/15 03:18:30;;;;;;;;;;;;;;;14.58;52.08;98144.34;5059470;28;20026;-56
2022/06/15 03:21:25;;;;;;;;;;;;;;;14.59;52.05;98140.47;5057114;28;20015;-54
2022/06/15 03:24:13;;;;;;;;;;;;;;;14.66;51.87;98143.50;5041495;28;20016;-56
2022/06/15 03:27:02;;;;;;;;;;;;;;;14.55;52.12;98150.50;5053827;28;20199;-54
2022/06/15 03:29:53;;;;;;;;;;;;;;;14.58;52.19;98149.81;5060035;28;19929;-56
2022/06/15 03:32:54;;;;;;;;;;;;;;;14.53;52.20;98147.28;5041499;28;19921;-54
2022/06/15 03:35:43;;;;;;;;;;;;;;;14.95;51.48;98150.03;5050624;28;20483;-56
2022/06/15 03:38:47;;;;;;;;;;;;;;;14.65;52.30;98144.63;5042907;28;19960;-55
2022/06/15 03:41:42;;;;;;;;;;;;;;;14.63;52.21;98154.28;5056290;28;19929;-56
2022/06/15 03:44:31;;;;;;;;;;;;;;;14.65;52.27;98161.03;5037707;28;19924;-54
2022/06/15 03:47:23;;;;;;;;;;;;;;;14.54;52.51;98159.00;5095056;28;20084;-56
2022/06/15 03:50:11;;;;;;;;;;;;;;;14.62;52.50;98156.22;5084042;28;19931;-55
2022/06/15 03:53:00;;;;;;;;;;;;;;;14.42;53.11;98155.03;5079691;28;19920;-56
2022/06/15 03:55:50;;;;;;;;;;;;;;;14.39;52.77;98154.91;5078804;28;19957;-56
2022/06/15 03:58:41;;;;;;;;;;;;;;;14.42;53.23;98154.22;5082763;28;19940;-56
2022/06/15 04:01:30;;;;;;;;;;;;;;;14.31;53.42;98156.53;5082088;28;20027;-55
2022/06/15 04:04:20;;;;;;;;;;;;;;;14.44;53.02;98154.72;5093899;28;20158;-56
2022/06/15 04:10:23;;;;;;;;;;;;;;;14.43;53.25;98158.56;5073801;28;19920;-51
2022/06/15 04:13:14;;;;;;;;;;;;;;;14.59;52.85;98154.16;5073970;28;19919;-56
2022/06/15 04:16:03;;;;;;;;;;;;;;;14.58;52.89;98159.94;5095579;28;19928;-53
2022/06/15 04:19:19;;;;;;;;;;;;;;;14.52;52.93;98153.88;5083770;28;19935;-52
2022/06/15 04:22:12;;;;;;;;;;;;;;;14.69;52.99;98155.69;5081865;28;19931;-56
2022/06/15 04:25:01;;;;;;;;;;;;;;;14.64;52.96;98148.47;5087915;28;20387;-54
2022/06/15 04:27:53;;;;;;;;;;;;;;;14.70;52.96;98161.97;5081383;28;19947;-51
2022/06/15 04:33:59;;;;;;;;;;;;;;;15.11;52.19;98163.91;5080969;28;19924;-55
2022/06/15 04:36:48;;;;;;;;;;;;;;;14.89;52.68;98173.25;5082165;28;20403;-56
2022/06/15 04:39:38;;;;;;;;;;;;;;;14.98;52.88;98165.81;5087745;28;20473;-56
2022/06/15 04:42:26;;;;;;;;;;;;;;;14.99;52.92;98166.59;5082529;28;19923;-55
2022/06/15 04:45:15;;;;;;;;;;;;;;;14.79;53.36;98168.97;5091113;28;20282;-56
2022/06/15 04:48:23;;;;;;;;;;;;;;;14.84;53.38;98168.78;5084689;28;19920;-49
2022/06/15 04:51:13;;;;;;;;;;;;;;;14.99;52.83;98167.41;5088344;28;19977;-57
2022/06/15 04:54:31;;;;;;;;;;;;;;;15.09;52.65;98174.41;5082109;28;20348;-57
2022/06/15 04:57:25;;;;;;;;;;;;;;;15.12;52.73;98173.72;5082288;28;19924;-53
2022/06/15 05:00:40;;;;;;;;;;;;;;;15.35;52.47;98176.94;5092272;28;20356;-56
2022/06/15 05:03:30;;;;;;;;;;;;;;;15.63;51.73;98179.91;5096307;28;19963;-54
2022/06/15 05:06:33;;;;;;;;;;;;;;;15.68;51.94;98172.28;5073587;28;20170;-54
2022/06/15 05:09:22;;;;;;;;;;;;;;;15.83;51.93;98170.03;5072211;28;19920;-54
2022/06/15 05:12:13;;;;;;;;;;;;;;;15.69;52.09;98171.13;5093377;28;20617;-53
2022/06/15 05:15:02;;;;;;;;;;;;;;;15.80;51.87;98171.50;5084193;28;19932;-53
2022/06/15 05:17:55;;;;;;;;;;;;;;;15.77;51.97;98171.38;5083800;28;20379;-55
2022/06/15 05:20:43;;;;;;;;;;;;;;;16.05;51.66;98177.03;5103379;28;19924;-54
2022/06/15 05:23:38;;;;;;;;;;;;;;;16.06;51.63;98179.41;5098101;28;19924;-54
2022/06/15 05:26:31;;;;;;;;;;;;;;;16.12;51.76;98177.25;5083941;28;19962;-56
2022/06/15 05:29:19;;;;;;;;;;;;;;;16.21;51.27;98177.97;5085445;28;19919;-56
2022/06/15 05:32:19;;;;;;;;;;;;;;;16.46;50.88;98187.00;5085830;28;20014;-55
2022/06/15 05:35:08;;;;;;;;;;;;;;;16.54;50.62;98183.31;5094155;28;19939;-55
2022/06/15 05:37:56;;;;;;;;;;;;;;;16.95;49.83;98185.03;5101583;28;19931;-53
2022/06/15 05:40:45;;;;;;;;;;;;;;;16.72;50.56;98187.47;5098873;28;19943;-55
2022/06/15 05:43:33;;;;;;;;;;;;;;;16.68;51.00;98177.50;5097649;28;20379;-56
2022/06/15 05:46:23;;;;;;;;;;;;;;;16.90;50.52;98178.97;5093067;28;20411;-53
2022/06/15 05:49:13;;;;;;;;;;;;;;;16.76;51.43;98185.63;5075123;28;19924;-55
2022/06/15 05:52:04;;;;;;;;;;;;;;;16.63;51.97;98184.00;5094305;28;20216;-56
2022/06/15 05:55:01;;;;;;;;;;;;;;;16.68;51.52;98177.50;5077383;28;20452;-55
2022/06/15 05:57:49;;;;;;;;;;;;;;;17.05;50.51;98178.25;5077968;28;19931;-56
2022/06/15 06:00:38;;;;;;;;;;;;;;;17.07;50.68;98178.69;5080640;28;19920;-56
2022/06/15 06:03:27;;;;;;;;;;;;;;;17.37;50.28;98175.66;5080470;28;20370;-56
2022/06/15 06:06:21;;;;;;;;;;;;;;;17.64;49.69;98176.78;5071574;28;19997;-54
2022/06/15 06:09:11;;;;;;;;;;;;;;;17.40;50.60;98180.41;5076932;28;19927;-55
2022/06/15 06:11:59;;;;;;;;;;;;;;;17.48;50.16;98174.78;5073913;28;19925;-55
2022/06/15 06:14:50;;;;;;;;;;;;;;;17.71;50.07;98175.00;5078183;28;19927;-57
2022/06/15 06:17:39;;;;;;;;;;;;;;;17.83;49.79;98176.91;5075946;28;19924;-56
2022/06/15 06:20:27;;;;;;;;;;;;;;;17.89;50.32;98169.22;5061019;28;20582;-55
2022/06/15 06:23:18;;;;;;;;;;;;;;;18.00;51.50;98176.59;5076821;28;20454;-54
2022/06/15 06:26:10;;;;;;;;;;;;;;;18.08;50.98;98177.56;5079313;28;20001;-55
2022/06/15 06:28:58;;;;;;;;;;;;;;;18.17;49.87;98178.19;5072158;28;20273;-54
2022/06/15 06:31:52;;;;;;;;;;;;;;;18.28;50.14;98179.25;5068466;28;19929;-55
2022/06/15 06:35:07;;;;;;;;;;;;;;;18.34;49.70;98166.03;5074645;28;19923;-54
2022/06/15 06:37:55;;;;;;;;;;;;;;;18.48;49.94;98169.13;5080002;28;19920;-56
2022/06/15 06:40:45;;;;;;;;;;;;;;;18.61;50.07;98163.53;5076792;28;19945;-55
2022/06/15 06:43:33;;;;;;;;;;;;;;;18.66;49.14;98169.53;5077093;28;19920;-55
2022/06/15 06:46:23;;;;;;;;;;;;;;;18.96;49.42;98174.53;5081601;28;20105;-50
2022/06/15 06:49:12;;;;;;;;;;;;;;;18.92;50.69;98168.19;5065174;28;20239;-56
2022/06/15 06:52:03;;;;;;;;;;;;;;;19.08;49.15;98179.94;5066866;28;20372;-53
2022/06/15 06:54:52;;;;;;;;;;;;;;;19.16;49.39;98175.38;5059889;28;20128;-55
2022/06/15 06:57:41;;;;;;;;;;;;;;;19.35;50.00;98176.19;5078271;28;19923;-55
2022/06/15 07:00:30;;;;;;;;;;;;;;;19.61;48.15;98183.03;5078986;28;19935;-54
2022/06/15 07:03:18;;;;;;;;;;;;;;;19.75;48.07;98176.97;5075845;28;19947;-53
2022/06/15 07:06:32;;;;;;;;;;;;;;;20.21;46.62;98180.56;5075430;28;19925;-56
2022/06/15 07:09:21;;;;;;;;;;;;;;;19.96;47.25;98180.13;5079354;28;19924;-57
2022/06/15 07:12:10;;;;;;;;;;;;;;;20.04;45.79;98170.03;5076224;28;20257;-54
2022/06/15 07:15:24;;;;;;;;;;;;;;;20.26;45.52;98171.97;5070810;28;20440;-54
2022/06/15 07:18:13;;;;;;;;;;;;;;;20.25;45.77;98159.34;5070033;28;20131;-53
2022/06/15 07:21:02;;;;;;;;;;;;;;;20.33;45.73;98161.06;5071378;28;20546;-57
2022/06/15 07:23:55;;;;;;;;;;;;;;;20.41;44.82;98161.97;5065287;28;20113;-53
2022/06/15 07:26:47;;;;;;;;;;;;;;;20.63;43.35;98157.59;5078491;28;19924;-55
2022/06/15 07:29:35;;;;;;;;;;;;;;;20.70;42.61;98152.19;5076302;28;19920;-54
2022/06/15 07:32:25;;;;;;;;;;;;;;;20.77;42.37;98163.31;5097768;28;20018;-52
2022/06/15 07:35:15;;;;;;;;;;;;;;;20.95;42.32;98162.78;5088223;28;19924;-54
2022/06/15 07:41:17;;;;;;;;;;;;;;;21.02;41.95;98151.84;5087463;28;20156;-55
2022/06/15 07:44:05;;;;;;;;;;;;;;;21.09;42.13;98143.63;5098013;28;20289;-49
2022/06/15 07:50:31;;;;;;;;;;;;;;;21.43;42.18;98145.28;5095116;28;19931;-55
2022/06/15 07:53:20;;;;;;;;;;;;;;;21.39;42.01;98133.38;5085991;28;20134;-52
2022/06/15 07:56:10;;;;;;;;;;;;;;;21.54;41.50;98139.06;5090973;28;19927;-55
2022/06/15 08:02:11;;;;;;;;;;;;;;;21.66;42.27;98141.56;5091035;28;19931;-55
2022/06/15 08:05:25;;;;;;;;;;;;;;;21.69;40.76;98132.53;5095610;28;20824;-55
2022/06/15 08:08:17;;;;;;;;;;;;;;;21.77;41.17;98128.66;5098307;28;20445;-53
2022/06/15 08:11:08;;;;;;;;;;;;;;;21.83;41.03;98124.34;5096654;28;19950;-50
2022/06/15 08:13:59;;;;;;;;;;;;;;;22.00;40.07;98124.91;5098699;28;20033;-54
2022/06/15 08:16:47;;;;;;;;;;;;;;;22.04;39.79;98128.50;5100515;28;19924;-55
2022/06/15 08:19:36;;;;;;;;;;;;;;;22.09;40.57;98128.16;5090909;28;20132;-55
2022/06/15 08:22:24;;;;;;;;;;;;;;;22.13;41.05;98132.56;5094964;28;19928;-53
2022/06/15 08:25:15;;;;;;;;;;;;;;;22.15;39.79;98123.88;5096375;28;20634;-54
2022/06/15 08:28:04;;;;;;;;;;;;;;;22.28;39.56;98127.16;5092107;28;20226;-56
2022/06/15 08:30:53;;;;;;;;;;;;;;;22.39;38.60;98126.06;5095165;28;20047;-48
2022/06/15 08:33:42;;;;;;;;;;;;;;;22.38;36.73;98126.44;5096981;28;19924;-54
2022/06/15 08:36:34;;;;;;;;;;;;;;;22.53;38.36;98122.59;5084670;28;20447;-56
2022/06/15 08:39:24;;;;;;;;;;;;;;;22.63;39.39;98121.06;5086710;28;19946;-49
2022/06/15 08:45:31;;;;;;;;;;;;;;;22.76;38.40;98111.25;5086187;28;20123;-53
2022/06/15 08:48:23;;;;;;;;;;;;;;;22.88;37.50;98110.97;5099562;28;20017;-56
2022/06/15 08:51:13;;;;;;;;;;;;;;;22.93;35.86;98115.34;5100706;28;20095;-55
2022/06/15 08:54:02;;;;;;;;;;;;;;;22.92;36.44;98114.56;5091610;28;19919;-55
2022/06/15 08:56:53;;;;;;;;;;;;;;;22.94;35.85;98108.59;5102001;28;19920;-55
2022/06/15 08:59:45;;;;;;;;;;;;;;;22.93;38.50;98107.81;5091529;28;20322;-55
2022/06/15 09:03:04;;;;;;;;;;;;;;;22.96;36.66;98103.50;5085431;28;20017;-56
2022/06/15 09:05:57;;;;;;;;;;;;;;;23.14;37.16;98106.34;5090156;28;19938;-48
2022/06/15 09:09:00;;;;;;;;;;;;;;;23.23;36.97;98104.00;5097386;28;20404;-55
2022/06/15 09:11:53;;;;;;;;;;;;;;;23.13;38.16;98111.09;5087418;28;19931;-55
2022/06/15 09:15:10;;;;;;;;;;;;;;;23.30;34.31;98108.78;5090252;28;20354;-65
2022/06/15 09:17:59;;;;;;;;;;;;;;;23.38;37.09;98113.94;5100482;28;19924;-67
2022/06/15 09:20:48;;;;;;;;;;;;;;;23.44;35.89;98108.81;5115060;28;19928;-64
2022/06/15 09:23:37;;;;;;;;;;;;;;;23.46;36.99;98112.78;5105174;28;20396;-66
2022/06/15 09:26:27;;;;;;;;;;;;;;;23.46;34.86;98110.00;5095556;28;19920;-67
2022/06/15 09:29:16;;;;;;;;;;;;;;;23.67;34.97;98100.97;5108539;28;19919;-66
2022/06/15 09:32:07;;;;;;;;;;;;;;;23.64;36.51;98112.06;5117197;28;19920;-66
2022/06/15 09:35:00;;;;;;;;;;;;;;;23.67;35.42;98111.28;5094287;28;19920;-63
2022/06/15 09:37:51;;;;;;;;;;;;;;;23.70;35.64;98116.03;5095570;28;19920;-66
2022/06/15 09:40:43;;;;;;;;;;;;;;;23.79;35.07;98110.88;5097078;28;19920;-66
2022/06/15 09:43:35;;;;;;;;;;;;;;;23.84;35.42;98109.72;5096092;28;20371;-65
2022/06/15 09:46:24;;;;;;;;;;;;;;;23.87;34.94;98109.72;5094556;28;19931;-70
2022/06/15 09:49:21;;;;;;;;;;;;;;;23.79;34.52;98102.56;5091911;28;19927;-61
2022/06/15 09:52:34;;;;;;;;;;;;;;;24.56;30.51;98109.34;5106375;28;20379;-57
2022/06/15 09:55:25;;;;;;;;;;;;;;;24.56;30.94;98101.00;5100843;28;19920;-56
2022/06/15 09:58:14;;;;;;;;;;;;;;;24.64;30.36;98100.97;5108865;28;19919;-58
2022/06/15 10:01:03;;;;;;;;;;;;;;;24.77;31.17;98093.81;5100122;28;19920;-57
2022/06/15 10:03:57;;;;;;;;;;;;;;;24.82;30.33;98085.03;5096998;28;19920;-57
2022/06/15 10:06:48;;;;;;;;;;;;;;;24.82;31.02;98085.03;5093983;28;19927;-57
2022/06/15 10:09:38;;;;;;;;;;;;;;;24.88;30.54;98088.22;5092962;28;20312;-57
2022/06/15 10:12:58;;;;;;;;;;;;;;;24.95;31.06;98093.75;5093194;28;19920;-57
2022/06/15 10:15:51;;;;;;;;;;;;;;;24.97;31.84;98086.59;5107641;28;19920;-57
2022/06/15 10:18:44;;;;;;;;;;;;;;;24.86;30.95;98077.50;5112411;28;19924;-57
2022/06/15 10:21:34;;;;;;;;;;;;;;;24.99;31.15;98077.88;5111048;28;19920;-57
2022/06/15 10:24:26;;;;;;;;;;;;;;;25.12;30.41;98065.13;5115427;28;20385;-58
2022/06/15 10:27:29;;;;;;;;;;;;;;;25.50;29.72;98074.44;5095841;28;19947;-57
2022/06/15 10:33:57;;;;;;;;;;;;;;;25.22;31.75;98069.03;5110912;28;20278;-57
2022/06/15 10:36:45;;;;;;;;;;;;;;;25.43;28.96;98062.59;5108963;28;19930;-57
2022/06/15 10:39:39;;;;;;;;;;;;;;;25.50;30.06;98063.31;5113010;28;19919;-57
2022/06/15 10:42:34;;;;;;;;;;;;;;;25.40;30.89;98060.59;5106017;28;19920;-59
2022/06/15 10:45:24;;;;;;;;;;;;;;;25.53;30.91;98061.72;5114929;28;19928;-60
2022/06/15 10:48:37;;;;;;;;;;;;;;;25.57;29.42;98051.38;5112942;28;19920;-60
2022/06/15 10:51:30;;;;;;;;;;;;;;;25.63;28.66;98040.59;5115117;28;19927;-59
2022/06/15 10:54:23;;;;;;;;;;;;;;;25.63;29.61;98048.94;5107574;28;19927;-59
2022/06/15 11:03:36;;;;;;;;;;;;;;;25.75;30.32;98032.56;5091804;28;19920;-56
2022/06/15 11:06:28;;;;;;;;;;;;;;;25.92;29.71;98033.63;5094465;28;19927;-58
2022/06/15 11:09:20;;;;;;;;;;;;;;;25.99;29.63;98028.00;5092160;28;19939;-57
2022/06/15 11:12:21;;;;;;;;;;;;;;;25.91;29.76;98031.25;5094170;28;19920;-58
2022/06/15 11:15:24;;;;;;;;;;;;;;;25.92;28.46;98028.06;5088279;28;19931;-58
2022/06/15 11:18:38;;;;;;;;;;;;;;;26.00;30.12;98018.47;5072715;28;20288;-58
2022/06/15 11:21:29;;;;;;;;;;;;;;;26.08;28.16;98017.19;5071989;28;21057;-59
2022/06/15 11:24:22;;;;;;;;;;;;;;;26.22;29.87;98015.47;5078117;28;19956;-58
2022/06/15 11:27:11;;;;;;;;;;;;;;;26.34;29.85;98026.09;5075699;28;19920;-59
2022/06/15 11:30:00;;;;;;;;;;;;;;;26.11;28.15;98015.56;5077424;28;19950;-59
2022/06/15 11:33:13;;;;;;;;;;;;;;;26.56;27.00;98015.53;5074499;28;20195;-59
2022/06/15 11:36:10;;;;;;;;;;;;;;;26.26;28.63;98017.03;5071485;28;20094;-59
2022/06/15 11:38:59;;;;;;;;;;;;;;;26.34;28.22;98012.16;5070207;28;19969;-58
2022/06/15 11:41:50;;;;;;;;;;;;;;;26.43;28.34;98011.72;5071514;28;19931;-59
2022/06/15 11:44:43;;;;;;;;;;;;;;;26.36;30.04;98007.75;5066342;28;19940;-58
2022/06/15 11:47:33;;;;;;;;;;;;;;;26.36;28.53;98006.94;5068656;28;20314;-58
2022/06/15 11:50:23;;;;;;;;;;;;;;;26.21;30.60;97999.97;5068124;28;20347;-58
2022/06/15 11:53:42;;;;;;;;;;;;;;;26.32;28.37;97995.88;5061788;28;20194;-59
2022/06/15 11:56:32;;;;;;;;;;;;;;;26.36;28.20;97990.25;5077491;28;19924;-58
2022/06/15 11:59:24;;;;;;;;;;;;;;;26.51;29.27;97983.34;5078372;28;19920;-59
2022/06/15 12:02:24;;;;;;;;;;;;;;;26.62;28.58;97986.78;5079118;28;20296;-59
2022/06/15 12:05:27;;;;;;;;;;;;;;;26.87;29.02;97985.69;5069632;28;20276;-58
2022/06/15 12:08:43;;;;;;;;;;;;;;;26.75;28.46;97989.03;5064020;28;19959;-59
2022/06/15 12:14:46;;;;;;;;;;;;;;;26.18;30.64;97986.88;5069910;28;19920;-59
2022/06/15 12:17:38;;;;;;;;;;;;;;;26.24;28.19;97977.63;5078554;28;19931;-59
2022/06/15 12:23:45;;;;;;;;;;;;;;;27.08;26.37;97974.28;5060826;28;20290;-58
2022/06/15 12:26:40;;;;;;;;;;;;;;;26.52;30.05;97973.78;5072873;28;19928;-59
2022/06/15 12:29:32;;;;;;;;;;;;;;;26.40;28.99;97979.84;5073205;28;20340;-59
2022/06/15 12:32:33;;;;;;;;;;;;;;;26.39;30.16;97976.28;5072549;28;20023;-57
2022/06/15 12:35:38;;;;;;;;;;;;;;;26.18;28.65;97975.72;5045408;28;20073;-58
2022/06/15 12:38:32;;;;;;;;;;;;;;;26.38;27.07;97979.50;5062326;28;19967;-58
2022/06/15 12:44:34;;;;;;;;;;;;;;;27.13;25.54;97964.66;5067946;28;19924;-58
2022/06/15 12:47:23;;;;;;;;;;;;;;;27.17;25.88;97971.00;5051314;28;19920;-58
2022/06/15 12:50:24;;;;;;;;;;;;;;;26.87;26.07;97975.34;5038736;28;19933;-58
2022/06/15 12:53:20;;;;;;;;;;;;;;;26.83;25.55;97963.44;5028387;28;20479;-58
2022/06/15 12:56:13;;;;;;;;;;;;;;;26.85;26.07;97957.47;5054943;28;19924;-58
2022/06/15 12:59:08;;;;;;;;;;;;;;;26.71;28.07;97972.34;5058496;28;19920;-58
2022/06/15 13:01:58;;;;;;;;;;;;;;;26.50;28.73;97967.84;5044295;28;20377;-58
2022/06/15 13:04:50;;;;;;;;;;;;;;;26.71;28.36;97966.00;5059428;28;20266;-58
2022/06/15 13:07:40;;;;;;;;;;;;;;;26.67;28.30;97973.59;5058844;28;19922;-58
2022/06/15 13:13:43;;;;;;;;;;;;;;;26.57;25.68;97962.16;5043100;28;20300;-58
2022/06/15 13:16:37;;;;;;;;;;;;;;;26.55;25.22;97964.59;5050064;28;19931;-58
2022/06/15 13:19:30;;;;;;;;;;;;;;;26.82;26.98;97961.06;5043332;28;20173;-58
2022/06/15 13:22:23;;;;;;;;;;;;;;;26.61;28.48;97968.50;5055080;28;19936;-58
2022/06/15 13:25:16;;;;;;;;;;;;;;;26.45;26.13;97965.50;5054937;28;19935;-60
2022/06/15 13:28:19;;;;;;;;;;;;;;;26.59;29.33;97956.97;5042325;28;20454;-58
2022/06/15 13:31:10;;;;;;;;;;;;;;;26.43;28.42;97958.78;5043097;28;20277;-58
2022/06/15 13:34:01;;;;;;;;;;;;;;;26.15;30.10;97959.84;5055599;28;20051;-58
2022/06/15 13:37:05;;;;;;;;;;;;;;;26.27;27.47;97954.53;5059140;28;19932;-58
2022/06/15 13:39:55;;;;;;;;;;;;;;;26.76;24.44;97957.19;5053625;28;20007;-58
2022/06/15 13:46:20;;;;;;;;;;;;;;;26.52;27.97;97951.47;5046910;28;20015;-58
2022/06/15 13:49:14;;;;;;;;;;;;;;;26.61;29.23;97949.00;5082749;28;20395;-58
2022/06/15 13:52:05;;;;;;;;;;;;;;;26.28;29.57;97949.75;5080588;28;19919;-58
2022/06/15 13:55:04;;;;;;;;;;;;;;;26.29;28.06;97935.41;5069357;28;19920;-59
2022/06/15 13:57:57;;;;;;;;;;;;;;;26.57;29.52;97941.88;5072438;28;19920;-58
2022/06/15 14:00:50;;;;;;;;;;;;;;;26.65;26.93;97946.16;5068794;28;20040;-58
2022/06/15 14:03:42;;;;;;;;;;;;;;;26.81;27.99;97943.56;5071199;28;20242;-58
2022/06/15 14:06:34;;;;;;;;;;;;;;;27.09;26.19;97945.19;5072838;28;20520;-58
2022/06/15 14:09:28;;;;;;;;;;;;;;;27.05;24.95;97936.03;5070762;28;20510;-58
2022/06/15 14:12:35;;;;;;;;;;;;;;;27.17;26.95;97942.31;5064600;28;19920;-58
2022/06/15 14:18:51;;;;;;;;;;;;;;;27.53;24.82;97923.00;5082054;28;19925;-58
2022/06/15 14:21:41;;;;;;;;;;;;;;;27.24;24.37;97937.41;5079090;28;19998;-58
2022/06/15 14:24:31;;;;;;;;;;;;;;;27.28;24.55;97929.00;5072036;28;19929;-58
2022/06/15 14:27:25;;;;;;;;;;;;;;;27.41;27.06;97924.38;5078668;28;19924;-58
2022/06/15 14:30:19;;;;;;;;;;;;;;;27.50;26.50;97921.84;5061736;28;19932;-58
2022/06/15 14:33:16;;;;;;;;;;;;;;;27.46;27.46;97926.69;5070238;28;19924;-58
2022/06/15 14:36:09;;;;;;;;;;;;;;;27.33;27.94;97929.28;5066541;28;19921;-58
2022/06/15 14:39:01;;;;;;;;;;;;;;;27.20;27.81;97925.50;5063290;28;20289;-58
2022/06/15 14:41:59;;;;;;;;;;;;;;;27.23;27.99;97927.47;5066899;28;19930;-58
2022/06/15 14:44:48;;;;;;;;;;;;;;;27.21;28.18;97920.72;5066543;28;20396;-58
2022/06/15 14:47:39;;;;;;;;;;;;;;;27.09;26.80;97930.47;5071355;28;19920;-58
2022/06/15 14:50:28;;;;;;;;;;;;;;;27.22;26.43;97923.09;5077577;28;20363;-58
2022/06/15 14:53:18;;;;;;;;;;;;;;;27.44;27.25;97917.97;5066843;28;19920;-58
2022/06/15 14:56:10;;;;;;;;;;;;;;;27.46;27.98;97921.09;5075018;28;19924;-58
2022/06/15 14:59:05;;;;;;;;;;;;;;;27.14;28.71;97916.03;5074772;28;20401;-58
2022/06/15 15:01:55;;;;;;;;;;;;;;;26.77;29.16;97916.94;5065564;28;19924;-57
2022/06/15 15:04:49;;;;;;;;;;;;;;;26.56;26.07;97913.22;5064355;28;20073;-57
2022/06/15 15:10:47;;;;;;;;;;;;;;;26.93;28.47;97910.75;5066636;28;19928;-57
2022/06/15 15:13:39;;;;;;;;;;;;;;;27.01;25.97;97907.44;5065443;28;20224;-57
2022/06/15 15:16:30;;;;;;;;;;;;;;;27.19;25.96;97896.03;5061087;28;19931;-58
2022/06/15 15:19:27;;;;;;;;;;;;;;;27.10;25.78;97893.00;5062982;28;19920;-58
2022/06/15 15:22:16;;;;;;;;;;;;;;;27.21;28.74;97892.81;5072060;28;20353;-57
2022/06/15 15:25:08;;;;;;;;;;;;;;;27.15;26.33;97890.50;5067384;28;19920;-58
2022/06/15 15:34:53;;;;;;;;;;;;;;;27.34;27.26;97885.44;5060456;28;19939;-58
2022/06/15 15:37:45;;;;;;;;;;;;;;;27.33;25.53;97895.03;4995678;28;20318;-58
2022/06/15 15:40:33;;;;;;;;;;;;;;;27.44;25.27;97884.47;5066553;28;20520;-58
2022/06/15 15:43:22;;;;;;;;;;;;;;;27.55;27.75;97887.88;5063437;28;20056;-58
2022/06/15 15:46:15;;;;;;;;;;;;;;;26.90;29.04;97881.72;5072441;28;19920;-58
2022/06/15 15:49:05;;;;;;;;;;;;;;;27.39;25.92;97884.97;5061225;28;19924;-58
2022/06/15 15:51:54;;;;;;;;;;;;;;;27.84;25.15;97868.63;5061939;28;19925;-58
2022/06/15 15:54:42;;;;;;;;;;;;;;;27.76;25.04;97866.41;5063887;28;20153;-58
2022/06/15 15:57:36;;;;;;;;;;;;;;;28.33;24.35;97868.09;5077354;28;19923;-58
2022/06/15 16:00:29;;;;;;;;;;;;;;;28.11;25.18;97871.28;5063006;28;20007;-58
2022/06/15 16:03:19;;;;;;;;;;;;;;;27.89;27.15;97854.19;5074324;28;19927;-58
2022/06/15 16:06:33;;;;;;;;;;;;;;;27.47;25.83;97866.88;5069314;28;19924;-58
2022/06/15 16:09:23;;;;;;;;;;;;;;;27.22;26.51;97855.34;5070608;28;19932;-58
2022/06/15 16:12:11;;;;;;;;;;;;;;;27.25;27.22;97855.31;5071469;28;19930;-58
2022/06/15 16:15:01;;;;;;;;;;;;;;;27.03;28.17;97865.97;5071025;28;19926;-58